Time;durP1;ratioP1;P1;durP2;ratioP2;P2;SDS_P1;SDS_P2;PMS_P1;PMS_P2;Temp;Humidity;BMP_temperature;BMP_pressure;BME280_temperature;BME280_humidity;BME280_pressure;Samples;Min_cycle;Max_cycle;Signal;HPM_P1;HPM_P2
2023/12/28 05:30:06;;;;;;;0.10;0.10;;;9.50;89.30;;;;;;6048291;23;20042;31
2023/12/28 05:32:32;;;;;;;0.10;0.10;;;9.50;89.40;;;;;;4859174;29;20128;-78
2023/12/28 05:34:57;;;;;;;0.10;0.10;;;9.50;89.30;;;;;;4895097;29;20068;-78
2023/12/28 05:37:23;;;;;;;0.00;0.00;;;9.50;89.40;;;;;;4880889;29;20421;-78
2023/12/28 05:39:49;;;;;;;0.10;0.10;;;9.50;89.50;;;;;;4865526;29;20085;-77
2023/12/28 05:42:14;;;;;;;0.10;0.10;;;9.50;89.50;;;;;;4881368;29;20040;-77
2023/12/28 05:44:40;;;;;;;0.10;0.10;;;9.50;89.50;;;;;;4868406;29;20076;-78
2023/12/28 05:47:05;;;;;;;0.10;0.10;;;9.50;89.50;;;;;;4886183;29;20093;-78
2023/12/28 05:49:31;;;;;;;0.10;0.10;;;9.50;89.70;;;;;;4878058;29;20542;-77
2023/12/28 05:51:57;;;;;;;0.20;0.20;;;9.50;89.40;;;;;;4886291;29;20037;-78
2023/12/28 05:54:22;;;;;;;0.10;0.10;;;9.50;89.50;;;;;;4886095;29;20029;-78
2023/12/28 05:56:48;;;;;;;0.10;0.10;;;9.50;89.40;;;;;;4886142;29;20029;-78
2023/12/28 05:59:13;;;;;;;0.10;0.10;;;9.50;89.50;;;;;;4885405;29;20485;-78
2023/12/28 06:01:43;;;;;;;0.15;0.10;;;9.50;89.50;;;;;;4884846;29;20532;-78
2023/12/28 06:04:09;;;;;;;0.17;0.17;;;9.60;89.30;;;;;;4884709;29;20463;-78
2023/12/28 06:06:36;;;;;;;0.10;0.10;;;9.60;89.20;;;;;;4894072;29;20068;-78
2023/12/28 06:09:03;;;;;;;0.10;0.10;;;9.50;89.30;;;;;;4885988;29;20520;-78
2023/12/28 06:11:29;;;;;;;0.10;0.10;;;9.50;89.20;;;;;;4885191;29;20393;-78
2023/12/28 06:13:54;;;;;;;0.10;0.10;;;9.50;89.10;;;;;;4885744;29;20029;-77
2023/12/28 06:16:20;;;;;;;0.10;0.10;;;9.60;89.10;;;;;;4885100;29;20033;-78
2023/12/28 06:18:45;;;;;;;0.10;0.10;;;9.60;88.90;;;;;;4885667;29;20032;-78
2023/12/28 06:21:11;;;;;;;0.10;0.10;;;9.60;89.00;;;;;;4885113;29;20385;-78
2023/12/28 06:23:37;;;;;;;0.10;0.10;;;9.60;88.90;;;;;;4885589;29;20149;-78
2023/12/28 06:26:09;;;;;;;0.10;0.10;;;9.60;88.90;;;;;;4885924;29;20501;-78
2023/12/28 06:28:35;;;;;;;0.20;0.20;;;9.60;88.80;;;;;;4885446;29;20029;-78
2023/12/28 06:31:00;;;;;;;0.20;0.20;;;9.60;88.80;;;;;;4891981;29;20509;-78
2023/12/28 06:33:28;;;;;;;0.10;0.10;;;9.60;88.70;;;;;;4887120;29;20454;-78
2023/12/28 06:35:54;;;;;;;0.10;0.10;;;9.60;88.60;;;;;;4903661;29;20029;-78
2023/12/28 06:38:21;;;;;;;0.10;0.10;;;9.70;88.60;;;;;;4904352;29;20049;-77
2023/12/28 06:40:46;;;;;;;0.10;0.10;;;9.70;88.60;;;;;;4903586;29;20080;-78
2023/12/28 06:43:12;;;;;;;0.10;0.10;;;9.70;88.40;;;;;;4903831;29;20032;-78
2023/12/28 06:45:38;;;;;;;0.15;0.10;;;9.70;88.50;;;;;;4903553;29;20028;-77
2023/12/28 06:48:04;;;;;;;0.10;0.10;;;9.70;88.40;;;;;;4904120;29;20036;-78
2023/12/28 06:50:30;;;;;;;0.15;0.15;;;9.70;88.30;;;;;;4902952;29;20032;-78
2023/12/28 06:52:56;;;;;;;0.20;0.20;;;9.70;88.40;;;;;;4903240;29;20484;-78
2023/12/28 06:55:21;;;;;;;0.10;0.10;;;9.70;88.20;;;;;;4902524;29;20035;-78
2023/12/28 06:57:47;;;;;;;0.10;0.10;;;9.70;88.10;;;;;;4903669;29;20846;-78
2023/12/28 07:00:13;;;;;;;0.10;0.10;;;9.60;88.30;;;;;;4903690;29;20016;-78
2023/12/28 07:02:39;;;;;;;0.10;0.10;;;9.60;88.30;;;;;;4900602;29;20029;-78
2023/12/28 07:05:05;;;;;;;0.10;0.10;;;9.60;88.40;;;;;;4903798;29;20448;-78
2023/12/28 07:07:30;;;;;;;0.10;0.10;;;9.60;88.20;;;;;;4876812;29;20119;-78
2023/12/28 07:09:57;;;;;;;0.10;0.10;;;9.50;88.40;;;;;;4884872;29;20384;-78
2023/12/28 07:12:23;;;;;;;0.10;0.10;;;9.50;88.50;;;;;;4895673;29;20033;-78
2023/12/28 07:14:49;;;;;;;0.10;0.10;;;9.50;88.40;;;;;;4886094;29;20036;-77
2023/12/28 07:17:17;;;;;;;0.10;0.10;;;9.60;88.50;;;;;;4902491;29;20032;-78
2023/12/28 07:19:43;;;;;;;0.10;0.10;;;9.60;88.40;;;;;;4902769;29;20029;-77
2023/12/28 07:22:08;;;;;;;0.13;0.13;;;9.50;88.20;;;;;;4903317;29;20043;-78
2023/12/28 07:24:34;;;;;;;0.10;0.10;;;9.50;88.30;;;;;;4903257;29;20021;-78
2023/12/28 07:27:00;;;;;;;0.10;0.10;;;9.50;88.30;;;;;;4903072;29;20400;-78
2023/12/28 07:29:25;;;;;;;0.10;0.10;;;9.50;88.30;;;;;;4902229;29;20080;-78
2023/12/28 07:31:51;;;;;;;0.10;0.10;;;9.50;88.30;;;;;;4902670;29;20519;-78
2023/12/28 07:34:17;;;;;;;0.10;0.10;;;9.50;88.20;;;;;;4902955;29;20040;-78
2023/12/28 07:36:43;;;;;;;0.10;0.10;;;9.50;88.20;;;;;;4902718;29;20552;-78
2023/12/28 07:39:09;;;;;;;0.20;0.20;;;9.40;88.20;;;;;;4902868;29;20063;-78
2023/12/28 07:41:35;;;;;;;0.10;0.10;;;9.40;88.40;;;;;;4918041;29;20499;-78
2023/12/28 07:44:00;;;;;;;0.10;0.10;;;9.50;88.40;;;;;;4921654;29;20052;-78
2023/12/28 07:46:27;;;;;;;0.10;0.10;;;9.60;88.40;;;;;;4907934;29;20052;-78
2023/12/28 07:48:52;;;;;;;0.10;0.10;;;9.60;88.30;;;;;;4902567;29;20032;-77
2023/12/28 07:51:18;;;;;;;0.10;0.10;;;9.60;88.30;;;;;;4903780;29;20035;-78
2023/12/28 07:53:43;;;;;;;0.10;0.10;;;9.70;88.20;;;;;;4902768;29;20037;-78
2023/12/28 07:56:09;;;;;;;0.10;0.10;;;9.70;88.30;;;;;;4902856;29;20387;-78
2023/12/28 07:58:37;;;;;;;0.10;0.10;;;9.80;88.10;;;;;;4902566;29;20032;-78
2023/12/28 08:01:03;;;;;;;0.10;0.10;;;9.80;88.00;;;;;;4902059;29;20032;-78
2023/12/28 08:03:28;;;;;;;0.10;0.10;;;9.80;87.90;;;;;;4902490;29;20033;-78
2023/12/28 08:05:54;;;;;;;0.10;0.10;;;9.80;87.80;;;;;;4901868;29;20065;-78
2023/12/28 08:08:20;;;;;;;0.10;0.10;;;9.80;87.90;;;;;;4885876;29;20036;-78
2023/12/28 08:10:45;;;;;;;0.10;0.10;;;9.70;87.80;;;;;;4902530;29;20408;-78
2023/12/28 08:13:11;;;;;;;0.10;0.10;;;9.70;87.80;;;;;;4885272;29;20029;-78
2023/12/28 08:15:36;;;;;;;0.10;0.10;;;9.70;87.80;;;;;;4901562;29;20087;-78
2023/12/28 08:18:02;;;;;;;0.10;0.10;;;9.70;88.00;;;;;;4902409;29;20110;-78
2023/12/28 08:20:28;;;;;;;0.10;0.10;;;9.70;88.00;;;;;;4900112;29;20028;-78
2023/12/28 08:22:53;;;;;;;0.10;0.10;;;9.70;87.90;;;;;;4902489;29;20060;-78
2023/12/28 08:25:19;;;;;;;0.10;0.10;;;9.70;88.00;;;;;;4901711;29;20056;-78
2023/12/28 08:27:45;;;;;;;0.10;0.10;;;9.70;87.80;;;;;;4902062;29;20088;-78
2023/12/28 08:30:11;;;;;;;0.10;0.10;;;9.70;87.90;;;;;;4901982;29;20396;-78
2023/12/28 08:32:36;;;;;;;0.10;0.10;;;9.70;88.10;;;;;;4902055;29;20420;-78
2023/12/28 08:35:02;;;;;;;0.10;0.10;;;9.70;88.00;;;;;;4901472;29;20036;-77
2023/12/28 08:37:28;;;;;;;0.10;0.10;;;9.70;87.90;;;;;;4902086;29;20448;-77
2023/12/28 08:39:55;;;;;;;0.10;0.10;;;9.70;87.80;;;;;;4903732;29;20034;-78
2023/12/28 08:42:20;;;;;;;0.10;0.10;;;9.80;87.80;;;;;;4904043;29;20028;-78
2023/12/28 08:44:46;;;;;;;0.17;0.17;;;9.80;87.70;;;;;;4900994;29;20039;-77
2023/12/28 08:47:11;;;;;;;0.20;0.20;;;9.90;87.80;;;;;;4885359;29;20563;-78
2023/12/28 08:49:37;;;;;;;0.10;0.10;;;9.90;87.70;;;;;;4901613;29;20040;-78
2023/12/28 08:52:03;;;;;;;0.10;0.10;;;9.90;87.70;;;;;;4901791;29;20048;-78
2023/12/28 08:54:28;;;;;;;0.10;0.10;;;10.00;87.60;;;;;;4901730;29;20563;-78
2023/12/28 08:56:54;;;;;;;0.10;0.10;;;10.00;87.60;;;;;;4901272;29;20029;-78
2023/12/28 08:59:20;;;;;;;0.10;0.10;;;10.00;87.50;;;;;;4901495;29;20040;-78
2023/12/28 09:01:45;;;;;;;0.10;0.10;;;10.10;87.60;;;;;;4901976;29;20032;-78
2023/12/28 09:04:11;;;;;;;0.20;0.20;;;10.20;87.50;;;;;;4901485;29;20092;-78
2023/12/28 09:06:37;;;;;;;0.10;0.10;;;10.20;87.40;;;;;;4901188;29;20555;-78
2023/12/28 09:09:03;;;;;;;0.10;0.10;;;10.20;87.20;;;;;;4900316;29;20072;-77
2023/12/28 09:11:29;;;;;;;0.10;0.10;;;10.30;87.40;;;;;;4901182;29;20310;-78
2023/12/28 09:13:55;;;;;;;0.10;0.10;;;10.30;87.20;;;;;;4901575;29;20040;-77
2023/12/28 09:16:21;;;;;;;0.10;0.10;;;10.30;87.20;;;;;;4901479;29;20488;-78
2023/12/28 09:18:46;;;;;;;0.10;0.10;;;10.40;87.00;;;;;;4886519;29;20091;-78
2023/12/28 09:21:12;;;;;;;0.10;0.10;;;10.50;87.00;;;;;;4905018;29;20024;-78
2023/12/28 09:23:38;;;;;;;0.20;0.20;;;10.70;86.90;;;;;;4888579;29;20025;-78
2023/12/28 09:26:05;;;;;;;0.20;0.20;;;10.80;86.70;;;;;;4905326;29;20116;-78
2023/12/28 09:28:31;;;;;;;0.10;0.10;;;10.80;86.50;;;;;;4904953;29;20024;-78
2023/12/28 09:30:57;;;;;;;0.17;0.17;;;10.90;86.30;;;;;;4891631;29;20140;-78
2023/12/28 09:33:22;;;;;;;0.20;0.20;;;11.10;86.00;;;;;;4905335;29;20098;-78
2023/12/28 09:35:48;;;;;;;0.10;0.10;;;11.10;85.80;;;;;;4905112;29;20080;-78
2023/12/28 09:38:14;;;;;;;0.17;0.17;;;11.20;85.70;;;;;;4904865;29;20020;-78
2023/12/28 09:40:44;;;;;;;0.10;0.10;;;11.20;85.50;;;;;;4912450;29;20089;-78
2023/12/28 09:43:27;;;;;;;0.10;0.10;;;11.30;85.30;;;;;;4924130;29;20031;-78
2023/12/28 09:45:54;;;;;;;0.10;0.10;;;11.40;85.20;;;;;;4914180;29;20071;-78
2023/12/28 09:48:24;;;;;;;0.10;0.10;;;11.50;84.80;;;;;;4905021;29;20017;-78
2023/12/28 09:50:54;;;;;;;0.10;0.10;;;11.60;84.90;;;;;;4905255;29;20056;-78
2023/12/28 09:53:24;;;;;;;0.20;0.20;;;11.70;84.50;;;;;;4888191;29;20119;-78
2023/12/28 09:55:53;;;;;;;0.10;0.10;;;11.70;84.40;;;;;;4904215;29;20033;-77
2023/12/28 09:58:20;;;;;;;0.10;0.10;;;11.80;84.10;;;;;;4903399;29;20028;-78
2023/12/28 10:00:48;;;;;;;0.10;0.10;;;11.80;84.00;;;;;;4904642;29;20032;-78
2023/12/28 10:03:14;;;;;;;0.20;0.20;;;11.80;83.50;;;;;;4904919;29;20020;-78
2023/12/28 10:05:46;;;;;;;0.10;0.10;;;11.90;83.40;;;;;;4904571;29;20028;-77
2023/12/28 10:08:13;;;;;;;0.10;0.10;;;11.90;83.40;;;;;;4904685;29;20033;-77
2023/12/28 10:10:40;;;;;;;0.20;0.20;;;11.90;83.20;;;;;;4887436;29;20479;-78
2023/12/28 10:13:07;;;;;;;0.10;0.10;;;12.00;83.10;;;;;;4903245;29;20032;-78
2023/12/28 10:15:33;;;;;;;0.10;0.10;;;12.00;82.80;;;;;;4904491;29;20559;-78
2023/12/28 10:17:59;;;;;;;0.10;0.10;;;12.10;82.50;;;;;;4904562;29;20025;-78
2023/12/28 10:20:28;;;;;;;0.10;0.10;;;12.10;82.50;;;;;;4904530;29;20049;-78
2023/12/28 10:22:54;;;;;;;0.10;0.10;;;12.20;82.30;;;;;;4904361;29;20496;-77
2023/12/28 10:25:20;;;;;;;0.10;0.10;;;12.20;81.90;;;;;;4904701;29;20180;-78
2023/12/28 10:27:49;;;;;;;0.10;0.10;;;12.20;81.60;;;;;;4904496;29;20092;-78
2023/12/28 10:30:15;;;;;;;0.10;0.10;;;12.20;81.60;;;;;;4903055;29;20448;-78
2023/12/28 10:32:41;;;;;;;0.10;0.10;;;12.30;81.60;;;;;;4886612;29;20128;-78
2023/12/28 10:35:08;;;;;;;0.10;0.10;;;12.30;81.30;;;;;;4902192;29;20029;-78
2023/12/28 10:37:35;;;;;;;0.10;0.10;;;12.30;80.90;;;;;;4900845;29;20044;-78
2023/12/28 10:40:09;;;;;;;0.10;0.10;;;12.30;80.90;;;;;;4906658;29;20035;-78
2023/12/28 10:42:48;;;;;;;0.10;0.10;;;12.40;80.80;;;;;;4922958;29;20505;-78
2023/12/28 10:45:16;;;;;;;0.10;0.10;;;12.50;80.70;;;;;;4920666;29;20051;-78
2023/12/28 10:47:52;;;;;;;0.10;0.10;;;12.50;80.40;;;;;;4904090;29;20024;-78
2023/12/28 10:50:18;;;;;;;0.10;0.10;;;12.60;80.30;;;;;;4903856;29;20589;-78
2023/12/28 10:52:48;;;;;;;0.20;0.20;;;12.70;79.90;;;;;;4903998;29;20020;-78
2023/12/28 10:55:23;;;;;;;0.10;0.10;;;12.70;79.40;;;;;;4903408;29;20594;-78
2023/12/28 10:58:33;;;;;;;0.10;0.10;;;12.80;79.10;;;;;;4902752;29;20511;-78
2023/12/28 11:01:04;;;;;;;0.10;0.10;;;12.90;79.10;;;;;;4845212;29;20033;-78
2023/12/28 11:03:37;;;;;;;0.10;0.10;;;13.00;78.40;;;;;;4887017;29;20064;-78
2023/12/28 11:06:04;;;;;;;;;;;13.20;77.40;;;;;;4904039;29;20060;-78
2023/12/28 11:08:32;;;;;;;0.10;0.10;;;13.20;77.30;;;;;;4903768;29;19915;-78
2023/12/28 11:11:04;;;;;;;0.10;0.10;;;13.10;76.80;;;;;;4902956;29;20099;-77
2023/12/28 11:13:32;;;;;;;0.10;0.10;;;13.10;77.30;;;;;;4903523;29;20149;-78
2023/12/28 11:15:58;;;;;;;0.10;0.10;;;13.10;77.20;;;;;;4902668;29;20028;-78
2023/12/28 11:18:25;;;;;;;0.10;0.10;;;13.10;76.70;;;;;;4907781;29;20120;-78
2023/12/28 11:20:52;;;;;;;0.10;0.10;;;13.10;77.00;;;;;;4903187;29;20084;-78
2023/12/28 11:23:18;;;;;;;0.10;0.10;;;13.10;76.90;;;;;;4902854;29;20057;-78
2023/12/28 11:25:43;;;;;;;0.10;0.10;;;13.10;77.00;;;;;;4903378;29;20492;-79
2023/12/28 11:28:10;;;;;;;0.20;0.20;;;13.20;77.00;;;;;;4886429;29;20029;-78
2023/12/28 11:30:36;;;;;;;0.10;0.10;;;13.20;76.50;;;;;;4913872;29;20060;-78
2023/12/28 11:33:05;;;;;;;0.10;0.10;;;13.10;75.90;;;;;;4903060;29;20036;-78
2023/12/28 11:35:39;;;;;;;0.10;0.10;;;13.00;76.80;;;;;;4903084;29;20029;-78
2023/12/28 11:38:09;;;;;;;0.10;0.10;;;13.10;76.80;;;;;;4902184;29;20029;-78
2023/12/28 11:40:42;;;;;;;0.10;0.10;;;13.00;76.60;;;;;;4909598;29;20028;-78
2023/12/28 11:43:33;;;;;;;0.10;0.10;;;13.00;76.40;;;;;;4921525;29;20508;-78
2023/12/28 11:46:00;;;;;;;0.10;0.10;;;13.10;76.70;;;;;;4917790;29;20024;-78
2023/12/28 11:48:27;;;;;;;0.10;0.10;;;13.10;76.70;;;;;;4903020;29;20039;-78
2023/12/28 11:51:00;;;;;;;0.10;0.10;;;13.10;77.20;;;;;;4885826;29;20036;-78
2023/12/28 11:53:26;;;;;;;0.10;0.10;;;13.20;76.90;;;;;;4902747;29;20036;-78
2023/12/28 11:55:52;;;;;;;0.10;0.10;;;13.20;76.90;;;;;;4888155;29;20029;-78
2023/12/28 11:58:18;;;;;;;0.10;0.10;;;13.30;76.70;;;;;;4902664;29;20036;-78
2023/12/28 12:00:44;;;;;;;0.10;0.10;;;13.40;76.00;;;;;;4902749;29;20028;-78
2023/12/28 12:03:11;;;;;;;0.10;0.10;;;13.50;76.00;;;;;;4901503;29;20164;-78
2023/12/28 12:05:37;;;;;;;0.10;0.10;;;13.50;76.10;;;;;;4902358;29;20056;-78
2023/12/28 12:08:03;;;;;;;0.10;0.10;;;13.50;75.60;;;;;;4901955;29;20036;-78
2023/12/28 12:10:29;;;;;;;0.10;0.10;;;13.40;75.80;;;;;;4885939;29;20025;-78
2023/12/28 12:12:55;;;;;;;0.10;0.10;;;13.30;75.50;;;;;;4884786;29;20066;-78
2023/12/28 12:15:20;;;;;;;0.10;0.10;;;13.20;75.50;;;;;;4885843;29;20032;-78
2023/12/28 12:17:47;;;;;;;0.10;0.10;;;13.10;75.10;;;;;;4902622;29;20383;-78
2023/12/28 12:20:14;;;;;;;0.10;0.10;;;13.10;75.20;;;;;;4902208;29;20021;-78
2023/12/28 12:22:40;;;;;;;0.10;0.10;;;13.00;75.30;;;;;;4902313;29;20033;-78
2023/12/28 12:25:07;;;;;;;0.10;0.10;;;13.00;75.00;;;;;;4885707;29;20395;-78
2023/12/28 12:27:34;;;;;;;0.15;0.15;;;13.00;74.10;;;;;;4901673;29;20039;-78
2023/12/28 12:30:00;;;;;;;0.10;0.10;;;13.10;74.50;;;;;;4901465;29;20029;-78
2023/12/28 12:32:26;;;;;;;0.10;0.10;;;13.10;73.80;;;;;;4902221;29;20061;-78
2023/12/28 12:34:52;;;;;;;0.17;0.17;;;13.10;73.60;;;;;;4900857;29;20060;-78
2023/12/28 12:37:18;;;;;;;0.10;0.10;;;13.20;73.30;;;;;;4902089;29;20095;-78
2023/12/28 12:39:44;;;;;;;0.10;0.10;;;13.20;73.10;;;;;;4902633;29;20025;-78
2023/12/28 12:42:14;;;;;;;0.10;0.10;;;13.20;73.50;;;;;;4883725;29;20029;-78
2023/12/28 12:44:39;;;;;;;0.10;0.10;;;13.30;73.50;;;;;;4883341;29;20021;-78
2023/12/28 12:47:07;;;;;;;0.03;0.03;;;13.40;73.80;;;;;;4883157;29;20124;-78
2023/12/28 12:49:32;;;;;;;0.10;0.10;;;13.50;73.80;;;;;;4895935;29;20037;-78
2023/12/28 12:51:58;;;;;;;0.10;0.10;;;13.50;73.90;;;;;;4901743;29;20632;-78
2023/12/28 12:54:24;;;;;;;0.10;0.10;;;13.60;73.40;;;;;;4884321;29;20056;-78
2023/12/28 12:56:53;;;;;;;0.10;0.10;;;13.70;73.20;;;;;;4901687;29;20036;-78
2023/12/28 12:59:19;;;;;;;0.10;0.10;;;13.80;73.10;;;;;;4901672;29;20361;-78
2023/12/28 13:01:48;;;;;;;0.10;0.10;;;14.00;73.30;;;;;;4901110;29;20080;-78
2023/12/28 13:04:15;;;;;;;0.10;0.10;;;14.10;72.20;;;;;;4884837;29;20031;-78
2023/12/28 13:06:41;;;;;;;0.10;0.10;;;14.10;72.60;;;;;;4901092;29;20036;-78
2023/12/28 13:09:07;;;;;;;0.10;0.10;;;14.10;72.70;;;;;;4901770;29;20530;-78
2023/12/28 13:11:35;;;;;;;0.10;0.10;;;14.00;72.20;;;;;;4901148;29;20062;-78
2023/12/28 13:14:01;;;;;;;0.10;0.10;;;14.10;72.10;;;;;;4901372;29;20028;-78
2023/12/28 13:16:26;;;;;;;0.10;0.10;;;14.10;71.00;;;;;;4901591;29;20083;-79
2023/12/28 13:18:52;;;;;;;0.10;0.10;;;14.20;71.50;;;;;;4901090;29;20033;-78
2023/12/28 13:21:18;;;;;;;0.10;0.10;;;14.20;71.60;;;;;;4900326;29;20029;-78
2023/12/28 13:23:43;;;;;;;0.10;0.10;;;14.20;71.10;;;;;;4901712;29;20028;-78
2023/12/28 13:26:09;;;;;;;0.10;0.10;;;14.10;70.70;;;;;;4901144;29;20167;-78
2023/12/28 13:28:35;;;;;;;0.10;0.10;;;14.10;70.30;;;;;;4900881;29;20115;-78
2023/12/28 13:31:00;;;;;;;0.10;0.10;;;14.00;69.50;;;;;;4901302;29;20052;-78
2023/12/28 13:33:26;;;;;;;0.10;0.10;;;13.90;69.10;;;;;;4901456;29;20504;-79
2023/12/28 13:35:52;;;;;;;0.00;0.00;;;13.80;68.90;;;;;;4901275;29;20111;-78
2023/12/28 13:38:18;;;;;;;0.10;0.10;;;13.70;69.40;;;;;;4900353;29;20028;-79
2023/12/28 13:40:43;;;;;;;0.08;0.08;;;13.70;70.00;;;;;;4896874;29;20021;-79
2023/12/28 13:43:10;;;;;;;0.10;0.10;;;13.60;70.20;;;;;;4900711;29;20060;-79
2023/12/28 13:45:35;;;;;;;0.10;0.10;;;13.60;70.70;;;;;;4884649;29;20029;-79
2023/12/28 13:48:02;;;;;;;0.10;0.10;;;13.60;71.10;;;;;;4901258;29;20036;-78
2023/12/28 13:50:28;;;;;;;0.10;0.10;;;13.50;71.50;;;;;;4883744;29;20085;-78
2023/12/28 13:52:53;;;;;;;0.10;0.10;;;13.50;71.30;;;;;;4901180;29;20033;-78
2023/12/28 13:55:19;;;;;;;0.10;0.10;;;13.50;71.40;;;;;;4900870;29;20674;-78
2023/12/28 13:57:45;;;;;;;0.10;0.10;;;13.50;71.50;;;;;;4884488;29;20116;-78
2023/12/28 14:00:11;;;;;;;0.10;0.10;;;13.50;71.70;;;;;;4900736;29;20021;-78
2023/12/28 14:02:37;;;;;;;0.10;0.10;;;13.50;71.60;;;;;;4900566;29;20103;-78
2023/12/28 14:05:03;;;;;;;0.10;0.10;;;13.40;71.30;;;;;;4886063;29;20068;-79
2023/12/28 14:07:29;;;;;;;0.10;0.10;;;13.30;71.80;;;;;;4888107;29;20025;-78
2023/12/28 14:09:54;;;;;;;0.10;0.10;;;13.30;71.40;;;;;;4887507;29;20036;-78
2023/12/28 14:12:20;;;;;;;0.10;0.10;;;13.30;71.90;;;;;;4904550;29;20039;-78
2023/12/28 14:14:45;;;;;;;0.10;0.10;;;13.20;71.60;;;;;;4903550;29;20502;-78
2023/12/28 14:17:11;;;;;;;0.10;0.10;;;13.20;72.10;;;;;;4904427;29;20024;-78
2023/12/28 14:19:37;;;;;;;0.08;0.08;;;13.20;72.30;;;;;;4887765;29;20034;-78
2023/12/28 14:22:03;;;;;;;0.10;0.10;;;13.10;72.10;;;;;;4899738;29;20043;-78
2023/12/28 14:24:29;;;;;;;0.10;0.10;;;13.10;72.10;;;;;;4904313;29;20025;-78
2023/12/28 14:26:55;;;;;;;0.10;0.10;;;13.00;72.60;;;;;;4904031;29;20056;-78
2023/12/28 14:29:22;;;;;;;0.10;0.10;;;12.90;72.70;;;;;;4868773;29;20061;-78
2023/12/28 14:31:48;;;;;;;0.10;0.10;;;12.90;72.50;;;;;;4885540;29;20525;-78
2023/12/28 14:34:14;;;;;;;0.17;0.17;;;12.90;72.70;;;;;;4897937;29;20127;-78
2023/12/28 14:36:40;;;;;;;0.10;0.10;;;13.00;72.00;;;;;;4903651;29;20065;-78
2023/12/28 14:39:08;;;;;;;0.10;0.10;;;13.10;72.30;;;;;;4904085;29;20025;-78
2023/12/28 14:41:34;;;;;;;0.10;0.10;;;13.20;72.20;;;;;;4919095;29;20020;-78
2023/12/28 14:44:00;;;;;;;0.10;0.10;;;13.20;72.10;;;;;;4906652;29;20084;-78
2023/12/28 14:46:26;;;;;;;0.10;0.10;;;13.30;72.30;;;;;;4904137;29;20044;-78
2023/12/28 14:48:52;;;;;;;0.10;0.10;;;13.30;71.60;;;;;;4887293;29;20488;-78
2023/12/28 14:51:18;;;;;;;0.10;0.10;;;13.30;71.80;;;;;;4903998;29;20051;-78
2023/12/28 14:53:44;;;;;;;0.10;0.10;;;13.20;71.00;;;;;;4903303;29;20036;-79
2023/12/28 14:56:11;;;;;;;0.10;0.10;;;13.20;71.20;;;;;;4903886;29;20153;-78
2023/12/28 14:58:40;;;;;;;0.10;0.10;;;13.20;70.90;;;;;;4903664;29;20384;-78
2023/12/28 15:01:06;;;;;;;0.10;0.10;;;13.20;70.80;;;;;;4903743;29;20028;-78
2023/12/28 15:03:32;;;;;;;0.10;0.10;;;13.20;70.50;;;;;;4903096;29;20032;-78
2023/12/28 15:05:57;;;;;;;0.10;0.10;;;13.10;70.50;;;;;;4903623;29;20033;-78
2023/12/28 15:08:25;;;;;;;0.10;0.10;;;13.10;70.40;;;;;;4903670;29;20036;-78
2023/12/28 15:10:51;;;;;;;0.20;0.20;;;13.10;70.50;;;;;;4903077;29;20104;-78
2023/12/28 15:13:17;;;;;;;0.10;0.10;;;13.10;71.20;;;;;;4903441;29;20036;-78
2023/12/28 15:15:43;;;;;;;0.10;0.10;;;13.00;70.80;;;;;;4902432;29;20400;-78
2023/12/28 15:18:10;;;;;;;0.10;0.10;;;13.00;70.80;;;;;;4901897;29;20028;-78
2023/12/28 15:20:36;;;;;;;0.10;0.10;;;12.90;71.10;;;;;;4901779;29;20165;-78
2023/12/28 15:23:02;;;;;;;0.10;0.10;;;12.90;71.20;;;;;;4886249;29;20044;-78
2023/12/28 15:25:28;;;;;;;0.10;0.10;;;12.80;71.40;;;;;;4903324;29;20046;-78
2023/12/28 15:27:54;;;;;;;0.10;0.10;;;12.80;71.80;;;;;;4901662;29;20484;-78
2023/12/28 15:30:20;;;;;;;0.10;0.10;;;12.80;72.00;;;;;;4886231;29;20624;-78
2023/12/28 15:32:46;;;;;;;0.10;0.10;;;12.70;71.80;;;;;;4902985;29;20084;-78
2023/12/28 15:35:14;;;;;;;0.10;0.10;;;12.70;72.30;;;;;;4903104;29;20480;-78
2023/12/28 15:37:40;;;;;;;0.10;0.10;;;12.60;72.60;;;;;;4901069;29;20033;-78
2023/12/28 15:40:06;;;;;;;0.10;0.10;;;12.50;72.70;;;;;;4905035;29;20031;-78
2023/12/28 15:42:32;;;;;;;0.10;0.10;;;12.50;73.00;;;;;;4912774;29;20024;-78
2023/12/28 15:45:00;;;;;;;0.10;0.10;;;12.40;73.10;;;;;;4902276;29;20032;-78
2023/12/28 15:47:27;;;;;;;0.10;0.10;;;12.30;73.20;;;;;;4886122;29;20036;-78
2023/12/28 15:49:53;;;;;;;0.10;0.10;;;12.20;73.60;;;;;;4902550;29;20021;-78
2023/12/28 15:52:19;;;;;;;0.10;0.10;;;12.20;73.90;;;;;;4901461;29;20440;-78
2023/12/28 15:54:45;;;;;;;0.10;0.10;;;12.20;73.90;;;;;;4902346;29;20033;-78
2023/12/28 15:57:10;;;;;;;0.10;0.10;;;12.20;74.20;;;;;;4902768;29;20605;-78
2023/12/28 15:59:36;;;;;;;0.10;0.10;;;12.20;74.40;;;;;;4902567;29;20052;-78
2023/12/28 16:02:02;;;;;;;0.05;0.05;;;12.00;74.50;;;;;;4902165;29;20037;-79
2023/12/28 16:04:28;;;;;;;0.10;0.10;;;12.00;74.80;;;;;;4902511;29;20116;-78
2023/12/28 16:06:53;;;;;;;0.10;0.10;;;12.00;74.90;;;;;;4901977;29;20111;-79
2023/12/28 16:09:19;;;;;;;0.10;0.10;;;12.00;75.00;;;;;;4902008;29;20119;-78
2023/12/28 16:11:44;;;;;;;0.08;0.08;;;11.90;75.20;;;;;;4902123;29;20032;-78
2023/12/28 16:14:10;;;;;;;0.10;0.10;;;11.90;75.50;;;;;;4901851;29;20044;-78
2023/12/28 16:16:36;;;;;;;0.10;0.10;;;11.90;75.60;;;;;;4902166;29;20029;-78
2023/12/28 16:19:03;;;;;;;0.10;0.10;;;11.80;75.90;;;;;;4898520;29;20020;-78
2023/12/28 16:21:30;;;;;;;0.10;0.10;;;11.80;75.90;;;;;;4902322;29;20029;-79
2023/12/28 16:23:57;;;;;;;0.10;0.10;;;11.70;76.00;;;;;;4902234;29;20113;-78
2023/12/28 16:26:23;;;;;;;0.10;0.10;;;11.70;76.40;;;;;;4901902;29;20060;-78
2023/12/28 16:28:49;;;;;;;0.10;0.10;;;11.60;76.40;;;;;;4902045;29;20520;-78
2023/12/28 16:31:14;;;;;;;0.10;0.10;;;11.60;76.60;;;;;;4901734;29;20067;-78
2023/12/28 16:33:40;;;;;;;0.10;0.10;;;11.60;76.70;;;;;;4902259;29;20025;-78
2023/12/28 16:36:06;;;;;;;0.10;0.10;;;11.60;76.70;;;;;;4902006;29;20044;-78
2023/12/28 16:38:31;;;;;;;0.10;0.10;;;11.60;76.90;;;;;;4901571;29;20032;-78
2023/12/28 16:40:57;;;;;;;0.10;0.10;;;11.60;77.00;;;;;;4911906;29;20052;-78
2023/12/28 16:43:24;;;;;;;0.10;0.10;;;11.50;76.90;;;;;;4920808;29;20024;-78
2023/12/28 16:45:49;;;;;;;0.00;0.00;;;11.50;77.10;;;;;;4877101;29;20041;-78
2023/12/28 16:48:15;;;;;;;0.10;0.10;;;11.40;77.20;;;;;;4883404;29;20050;-78
2023/12/28 16:50:41;;;;;;;0.10;0.10;;;11.40;77.30;;;;;;4882867;29;20060;-78
2023/12/28 16:53:06;;;;;;;0.00;0.00;;;11.30;77.40;;;;;;4901866;29;20538;-78
2023/12/28 16:55:32;;;;;;;0.10;0.10;;;11.30;77.40;;;;;;4885232;29;20032;-78
2023/12/28 16:57:58;;;;;;;0.10;0.10;;;11.30;77.70;;;;;;4881445;29;20037;-78
2023/12/28 17:00:24;;;;;;;0.10;0.10;;;11.30;77.60;;;;;;4889650;29;20028;-78
2023/12/28 17:02:49;;;;;;;0.05;0.05;;;11.20;77.90;;;;;;4889308;29;20032;-78
2023/12/28 17:05:18;;;;;;;0.10;0.10;;;11.20;78.10;;;;;;4901609;29;20029;-78
2023/12/28 17:07:44;;;;;;;0.10;0.10;;;11.20;78.10;;;;;;4901318;29;20025;-78
2023/12/28 17:10:10;;;;;;;0.10;0.10;;;11.20;78.20;;;;;;4901688;29;20028;-78
2023/12/28 17:12:38;;;;;;;0.10;0.10;;;11.10;78.30;;;;;;4901157;29;20056;-78
2023/12/28 17:15:06;;;;;;;0.10;0.10;;;11.10;78.30;;;;;;4901632;29;20039;-78
2023/12/28 17:17:33;;;;;;;0.10;0.10;;;11.10;78.60;;;;;;4901247;29;20036;-78
2023/12/28 17:19:59;;;;;;;0.10;0.10;;;11.10;78.60;;;;;;4884948;29;20057;-78
2023/12/28 17:22:30;;;;;;;0.10;0.10;;;11.10;78.80;;;;;;4901704;29;20432;-77
2023/12/28 17:25:08;;;;;;;0.10;0.10;;;11.00;78.90;;;;;;4900654;29;20040;-78
2023/12/28 17:27:37;;;;;;;0.10;0.10;;;11.00;79.00;;;;;;4881899;29;20025;-78
2023/12/28 17:30:03;;;;;;;0.10;0.10;;;11.00;79.00;;;;;;4882812;29;20026;-78
2023/12/28 17:32:31;;;;;;;0.10;0.10;;;10.90;79.30;;;;;;4882478;29;20094;-78
2023/12/28 17:34:57;;;;;;;0.10;0.10;;;10.90;79.40;;;;;;4901141;29;20174;-78
2023/12/28 17:37:23;;;;;;;0.10;0.10;;;10.80;79.50;;;;;;4884566;29;20023;-78
2023/12/28 17:39:49;;;;;;;0.10;0.10;;;10.80;79.60;;;;;;4903416;29;20100;-78
2023/12/28 17:42:20;;;;;;;0.10;0.10;;;10.80;79.80;;;;;;4906945;29;20031;-78
2023/12/28 17:44:48;;;;;;;0.10;0.10;;;10.80;79.80;;;;;;4924040;29;20387;-78
2023/12/28 17:47:29;;;;;;;0.10;0.10;;;10.80;80.00;;;;;;4908848;29;20076;-78
2023/12/28 17:49:55;;;;;;;0.00;0.00;;;10.80;80.00;;;;;;4888429;29;20029;-78
2023/12/28 17:52:26;;;;;;;0.10;0.10;;;10.80;80.00;;;;;;4905106;29;20032;-78
2023/12/28 17:54:52;;;;;;;0.10;0.10;;;10.80;79.90;;;;;;4903834;29;20023;-78
2023/12/28 17:57:18;;;;;;;0.10;0.10;;;10.80;80.00;;;;;;4904903;29;20115;-78
2023/12/28 17:59:43;;;;;;;0.08;0.08;;;10.80;80.00;;;;;;4904337;29;20095;-78
2023/12/28 18:02:11;;;;;;;0.10;0.10;;;10.80;80.00;;;;;;4904659;29;20080;-78
2023/12/28 18:04:37;;;;;;;0.10;0.10;;;10.80;80.00;;;;;;4904246;29;20024;-78
2023/12/28 18:07:03;;;;;;;0.10;0.10;;;10.80;80.00;;;;;;4904519;29;20088;-78
2023/12/28 18:09:29;;;;;;;0.10;0.10;;;10.80;80.00;;;;;;4904329;29;20024;-78
2023/12/28 18:11:54;;;;;;;0.10;0.10;;;10.80;80.00;;;;;;4904200;29;20447;-78
2023/12/28 18:14:21;;;;;;;0.10;0.10;;;10.80;80.10;;;;;;4887718;29;20115;-78
2023/12/28 18:16:48;;;;;;;0.10;0.10;;;10.70;80.20;;;;;;4903343;29;20119;-79